Time;durP1;ratioP1;P1;durP2;ratioP2;P2;SDS_P1;SDS_P2;PMS_P1;PMS_P2;Temp;Humidity;BMP_temperature;BMP_pressure;BME280_temperature;BME280_humidity;BME280_pressure;Samples;Min_cycle;Max_cycle;Signal;HPM_P1;HPM_P2
2022/07/09 00:00:09;;;;;;;9.05;6.00;;;17.10;99.90;;;;;;4931765;29;20562;-74
2022/07/09 00:02:36;;;;;;;11.00;5.80;;;17.20;99.90;;;;;;4927342;28;20181;-74
2022/07/09 00:05:02;;;;;;;6.20;4.97;;;17.10;99.90;;;;;;4913310;28;20074;-75
2022/07/09 00:07:28;;;;;;;10.25;5.47;;;17.10;99.90;;;;;;4932777;29;20058;-74
2022/07/09 00:09:54;;;;;;;7.60;4.50;;;17.10;99.90;;;;;;4926709;28;20052;-74
2022/07/09 00:12:19;;;;;;;10.63;5.40;;;17.10;99.90;;;;;;4922096;29;20580;-74
2022/07/09 00:14:45;;;;;;;6.50;5.10;;;17.10;99.90;;;;;;4920728;29;20047;-74
2022/07/09 00:17:11;;;;;;;9.38;6.05;;;17.10;99.90;;;;;;4920653;29;20535;-74
2022/07/09 00:19:37;;;;;;;14.77;6.25;;;17.10;99.90;;;;;;4926478;29;20079;-74
2022/07/09 00:22:04;;;;;;;9.15;4.30;;;17.00;99.90;;;;;;4924744;29;20043;-74
2022/07/09 00:24:29;;;;;;;8.23;4.40;;;17.00;99.90;;;;;;4918094;29;20063;-73
2022/07/09 00:26:55;;;;;;;9.43;5.25;;;17.00;99.90;;;;;;4917806;29;20048;-74
2022/07/09 00:29:20;;;;;;;9.95;5.25;;;17.00;99.90;;;;;;4900926;29;20061;-73
2022/07/09 00:31:46;;;;;;;10.75;6.07;;;17.00;99.90;;;;;;4921000;29;20094;-74
2022/07/09 00:34:12;;;;;;;9.63;4.97;;;17.10;99.90;;;;;;4929700;28;20167;-73
2022/07/09 00:36:38;;;;;;;9.13;4.80;;;17.10;99.90;;;;;;4922471;29;20427;-74
2022/07/09 00:39:04;;;;;;;8.75;5.10;;;17.00;99.90;;;;;;4917492;29;20052;-73
2022/07/09 00:41:30;;;;;;;9.75;5.90;;;17.00;99.90;;;;;;4922233;29;20097;-73
2022/07/09 00:43:56;;;;;;;8.00;4.25;;;17.00;99.90;;;;;;4923916;28;20040;-73
2022/07/09 00:46:21;;;;;;;7.53;4.93;;;17.00;99.90;;;;;;4930410;28;20048;-75
2022/07/09 00:48:47;;;;;;;8.65;4.85;;;17.00;99.90;;;;;;4917384;29;20052;-73
2022/07/09 00:51:14;;;;;;;7.47;4.88;;;17.00;99.90;;;;;;4928884;29;20055;-73
2022/07/09 00:53:41;;;;;;;12.05;6.32;;;17.00;99.90;;;;;;4920289;28;20048;-73
2022/07/09 00:56:07;;;;;;;6.50;3.85;;;17.00;99.90;;;;;;4918868;29;20144;-75
2022/07/09 00:58:34;;;;;;;8.95;5.10;;;17.00;99.90;;;;;;4914674;29;20040;-72
2022/07/09 01:01:01;;;;;;;9.90;4.95;;;17.00;99.90;;;;;;4919931;29;20110;-74
2022/07/09 01:03:27;;;;;;;6.78;4.45;;;17.10;99.90;;;;;;4915913;29;20050;-74
2022/07/09 01:05:55;;;;;;;5.75;4.15;;;17.10;99.90;;;;;;4928249;29;20126;-73
2022/07/09 01:08:21;;;;;;;8.45;4.35;;;17.10;99.90;;;;;;4919869;28;20048;-73
2022/07/09 01:10:50;;;;;;;6.85;3.92;;;17.10;99.90;;;;;;4913625;28;20140;-72
2022/07/09 01:13:15;;;;;;;7.47;4.80;;;17.10;99.90;;;;;;4916631;29;20048;-73
2022/07/09 01:15:41;;;;;;;10.00;4.63;;;17.30;99.90;;;;;;4921303;28;20055;-73
2022/07/09 01:18:11;;;;;;;7.47;4.75;;;17.10;99.90;;;;;;4917045;29;20055;-73
2022/07/09 01:20:36;;;;;;;8.65;5.38;;;17.10;99.90;;;;;;4909545;29;20056;-74
2022/07/09 01:23:02;;;;;;;5.22;4.35;;;17.10;99.90;;;;;;4919212;29;20054;-73
2022/07/09 01:25:35;;;;;;;10.55;4.43;;;17.10;99.90;;;;;;4918277;29;20059;-73
2022/07/09 01:28:05;;;;;;;12.90;5.57;;;17.10;99.90;;;;;;4921853;29;20332;-73
2022/07/09 01:30:31;;;;;;;7.60;4.50;;;17.10;99.90;;;;;;4929982;29;20109;-74
2022/07/09 01:32:57;;;;;;;5.95;4.43;;;17.10;99.90;;;;;;4921674;28;20046;-73
2022/07/09 01:35:22;;;;;;;8.52;4.65;;;17.10;99.90;;;;;;4919031;29;20063;-73
2022/07/09 01:37:48;;;;;;;5.78;4.57;;;17.10;99.90;;;;;;4919778;29;20062;-74
2022/07/09 01:40:14;;;;;;;9.25;4.60;;;17.10;99.90;;;;;;4921249;29;20062;-73
2022/07/09 01:42:40;;;;;;;7.38;4.65;;;17.10;99.90;;;;;;4920679;29;20110;-74
2022/07/09 01:45:06;;;;;;;9.98;4.97;;;17.10;99.90;;;;;;4918881;29;20626;-72
2022/07/09 01:47:32;;;;;;;9.63;4.47;;;17.10;99.90;;;;;;4905541;29;20060;-73
2022/07/09 01:49:58;;;;;;;9.40;5.32;;;17.10;99.90;;;;;;4905915;29;20174;-73
2022/07/09 01:52:24;;;;;;;11.43;4.05;;;17.00;99.90;;;;;;4923418;29;20392;-73
2022/07/09 01:54:50;;;;;;;10.57;5.47;;;17.10;99.90;;;;;;4933747;28;20134;-73
2022/07/09 01:57:16;;;;;;;15.73;5.32;;;17.10;99.90;;;;;;4935068;29;20470;-73
2022/07/09 01:59:41;;;;;;;11.45;5.88;;;17.00;99.90;;;;;;4935041;29;20058;-71
2022/07/09 02:02:07;;;;;;;8.70;5.28;;;17.00;99.90;;;;;;4934859;29;20043;-71
2022/07/09 02:04:33;;;;;;;8.80;4.53;;;17.00;99.90;;;;;;4935436;29;20211;-72
2022/07/09 02:06:58;;;;;;;7.40;5.25;;;17.00;99.90;;;;;;4934441;29;20091;-71
2022/07/09 02:09:24;;;;;;;9.57;4.95;;;16.90;99.90;;;;;;4934955;29;20051;-71
2022/07/09 02:11:50;;;;;;;10.35;5.55;;;16.90;99.90;;;;;;4934499;29;20062;-73
2022/07/09 02:14:16;;;;;;;6.25;4.32;;;17.00;99.90;;;;;;4934924;29;20054;-73
2022/07/09 02:16:42;;;;;;;10.02;5.22;;;17.00;99.90;;;;;;4935355;29;20063;-73
2022/07/09 02:19:07;;;;;;;8.70;4.68;;;16.90;99.90;;;;;;4934738;29;20052;-73
2022/07/09 02:21:34;;;;;;;8.63;4.63;;;16.90;99.90;;;;;;4934166;29;20164;-72
2022/07/09 02:23:59;;;;;;;8.00;4.95;;;16.90;99.90;;;;;;4934742;29;20398;-72
2022/07/09 02:26:29;;;;;;;11.77;5.28;;;16.90;99.90;;;;;;4935234;29;20044;-73
2022/07/09 02:28:58;;;;;;;13.18;5.65;;;16.90;99.90;;;;;;4935212;29;20127;-73
2022/07/09 02:31:25;;;;;;;8.43;5.13;;;16.80;99.90;;;;;;4933712;29;20044;-73
2022/07/09 02:33:51;;;;;;;11.68;6.43;;;16.80;99.90;;;;;;4934491;29;20048;-74
2022/07/09 02:36:16;;;;;;;11.05;6.25;;;16.80;99.90;;;;;;4934584;29;20122;-74
2022/07/09 02:38:42;;;;;;;7.47;4.60;;;16.80;99.90;;;;;;4935006;29;20048;-73
2022/07/09 02:41:08;;;;;;;11.68;7.55;;;16.80;99.90;;;;;;4934291;29;20051;-74
2022/07/09 02:43:34;;;;;;;10.65;5.43;;;16.80;99.90;;;;;;4934820;29;20047;-72
2022/07/09 02:45:59;;;;;;;11.60;5.40;;;16.80;99.90;;;;;;4934909;29;20107;-72
2022/07/09 02:48:25;;;;;;;9.60;5.90;;;16.80;99.90;;;;;;4935092;29;20062;-72
2022/07/09 02:50:51;;;;;;;10.10;5.80;;;16.80;99.90;;;;;;4934997;29;20464;-74
2022/07/09 02:53:18;;;;;;;10.13;5.20;;;16.80;99.90;;;;;;4934760;29;20059;-74
2022/07/09 02:55:44;;;;;;;9.93;5.85;;;16.80;99.90;;;;;;4934648;29;20076;-74
2022/07/09 02:58:12;;;;;;;9.80;5.53;;;16.80;99.90;;;;;;4934613;29;20050;-72
2022/07/09 03:00:40;;;;;;;8.60;5.78;;;16.80;99.90;;;;;;4934684;29;20048;-74
2022/07/09 03:03:06;;;;;;;6.88;5.10;;;16.80;99.90;;;;;;4933746;29;20060;-72
2022/07/09 03:05:32;;;;;;;11.98;5.28;;;16.80;99.90;;;;;;4935001;29;20079;-74
2022/07/09 03:07:58;;;;;;;9.88;6.07;;;16.70;99.90;;;;;;4935706;29;20224;-73
2022/07/09 03:10:24;;;;;;;9.15;5.65;;;16.70;99.90;;;;;;4938295;29;20115;-72
2022/07/09 03:12:49;;;;;;;7.60;4.53;;;16.70;99.90;;;;;;4938124;29;20052;-72
2022/07/09 03:15:16;;;;;;;11.05;5.30;;;16.60;99.90;;;;;;4937965;29;20127;-72
2022/07/09 03:17:46;;;;;;;10.02;5.32;;;16.60;99.90;;;;;;4937906;29;20074;-74
2022/07/09 03:20:12;;;;;;;8.68;5.03;;;16.50;99.90;;;;;;4938148;29;20055;-73
2022/07/09 03:22:38;;;;;;;10.45;5.90;;;16.50;99.90;;;;;;4937661;29;20044;-74
2022/07/09 03:25:05;;;;;;;5.95;4.13;;;16.40;99.90;;;;;;4937755;29;20047;-72
2022/07/09 03:27:31;;;;;;;8.85;3.85;;;16.40;99.90;;;;;;4937981;29;20043;-73
2022/07/09 03:29:57;;;;;;;7.57;5.10;;;16.40;99.90;;;;;;4936491;29;20055;-74
2022/07/09 03:32:22;;;;;;;6.57;4.10;;;16.40;99.90;;;;;;4937800;29;20186;-73
2022/07/09 03:34:48;;;;;;;5.38;3.60;;;16.40;99.90;;;;;;4937162;29;20052;-74
2022/07/09 03:37:14;;;;;;;8.55;4.30;;;16.20;99.90;;;;;;4938039;29;20115;-74
2022/07/09 03:39:40;;;;;;;7.65;4.70;;;16.40;99.90;;;;;;4937492;29;20048;-73
2022/07/09 03:42:09;;;;;;;9.05;4.45;;;16.40;99.90;;;;;;4937487;29;20106;-73
2022/07/09 03:44:35;;;;;;;5.60;3.83;;;16.30;99.90;;;;;;4937310;29;20063;-72
2022/07/09 03:47:01;;;;;;;6.40;4.47;;;16.40;99.90;;;;;;4937541;29;20036;-74
2022/07/09 03:49:27;;;;;;;6.95;4.68;;;16.40;99.90;;;;;;4936929;29;20044;-74
2022/07/09 03:51:53;;;;;;;8.80;4.55;;;16.40;99.90;;;;;;4937220;29;20111;-74
2022/07/09 03:54:18;;;;;;;6.80;4.28;;;16.40;99.90;;;;;;4937357;29;20520;-74
2022/07/09 03:56:44;;;;;;;5.43;3.63;;;16.40;99.90;;;;;;4937513;29;20075;-72
2022/07/09 03:59:10;;;;;;;7.60;4.68;;;16.40;99.90;;;;;;4937433;29;20086;-73
2022/07/09 04:01:36;;;;;;;8.77;4.95;;;16.40;99.90;;;;;;4937232;29;20051;-72
2022/07/09 04:04:02;;;;;;;7.65;5.03;;;16.30;99.90;;;;;;4937290;29;20471;-74
2022/07/09 04:06:27;;;;;;;7.50;4.25;;;16.40;99.90;;;;;;4936985;29;20043;-74
2022/07/09 04:08:53;;;;;;;7.30;4.57;;;16.30;99.90;;;;;;4936934;29;20047;-74
2022/07/09 04:11:19;;;;;;;8.32;4.78;;;16.40;99.90;;;;;;4936902;29;20044;-74
2022/07/09 04:13:44;;;;;;;8.05;4.85;;;16.40;99.90;;;;;;4936471;29;20043;-73
2022/07/09 04:16:10;;;;;;;5.32;3.95;;;16.40;99.90;;;;;;4936791;29;20128;-74
2022/07/09 04:18:36;;;;;;;8.55;4.13;;;16.40;99.90;;;;;;4935327;29;20051;-72
2022/07/09 04:21:02;;;;;;;6.55;4.93;;;16.40;99.90;;;;;;4936000;29;20073;-74
2022/07/09 04:23:27;;;;;;;8.20;4.25;;;16.40;99.90;;;;;;4936637;29;20091;-74
2022/07/09 04:25:54;;;;;;;7.07;4.22;;;16.50;99.90;;;;;;4936654;29;20040;-73
2022/07/09 04:28:20;;;;;;;8.02;5.07;;;16.50;99.90;;;;;;4936354;29;20484;-74
2022/07/09 04:30:46;;;;;;;9.00;4.32;;;16.50;99.90;;;;;;4936498;29;20048;-73
2022/07/09 04:33:12;;;;;;;5.90;3.45;;;16.50;99.90;;;;;;4936396;29;20099;-74
2022/07/09 04:35:38;;;;;;;8.02;4.43;;;16.50;99.90;;;;;;4937075;29;20126;-73
2022/07/09 04:38:04;;;;;;;8.48;4.18;;;16.60;99.90;;;;;;4936466;29;20155;-74
2022/07/09 04:40:30;;;;;;;8.90;4.47;;;16.60;99.90;;;;;;4936314;29;20055;-74
2022/07/09 04:42:56;;;;;;;7.65;3.90;;;16.60;99.90;;;;;;4936328;29;20126;-74
2022/07/09 04:45:22;;;;;;;7.78;5.13;;;16.60;99.90;;;;;;4936671;29;20126;-74
2022/07/09 04:47:48;;;;;;;10.55;5.20;;;16.70;99.90;;;;;;4935408;29;20051;-75
2022/07/09 04:50:13;;;;;;;10.13;4.50;;;16.70;99.90;;;;;;4935363;29;20058;-75
2022/07/09 04:52:39;;;;;;;7.50;4.30;;;16.70;99.90;;;;;;4936131;29;20047;-75
2022/07/09 04:55:06;;;;;;;10.23;4.07;;;16.80;99.90;;;;;;4936036;29;20051;-74
2022/07/09 04:57:32;;;;;;;8.35;4.72;;;16.80;99.90;;;;;;4935603;29;20047;-73
2022/07/09 05:00:01;;;;;;;8.50;3.85;;;16.80;99.90;;;;;;4936074;29;20043;-74
2022/07/09 05:02:27;;;;;;;5.55;4.18;;;16.90;99.90;;;;;;4935783;29;20051;-75
2022/07/09 05:04:53;;;;;;;4.88;3.58;;;16.90;99.90;;;;;;4934979;29;20055;-74
2022/07/09 05:07:19;;;;;;;6.35;4.22;;;16.90;99.90;;;;;;4935996;29;20046;-75
2022/07/09 05:09:45;;;;;;;5.32;3.80;;;17.00;99.90;;;;;;4935679;29;20043;-73
2022/07/09 05:12:11;;;;;;;5.20;3.42;;;17.00;99.90;;;;;;4935601;29;20055;-74
2022/07/09 05:14:37;;;;;;;4.78;3.28;;;17.10;99.90;;;;;;4936020;29;20047;-72
2022/07/09 05:17:04;;;;;;;5.93;3.85;;;17.20;99.90;;;;;;4935619;29;20047;-74
2022/07/09 05:19:30;;;;;;;5.72;3.20;;;17.20;99.90;;;;;;4935618;29;20149;-74
2022/07/09 05:21:56;;;;;;;4.78;3.55;;;17.20;99.90;;;;;;4935526;29;20056;-74
2022/07/09 05:24:22;;;;;;;9.15;4.13;;;17.30;99.90;;;;;;4935496;29;20143;-74
2022/07/09 05:26:48;;;;;;;4.72;3.97;;;17.30;99.90;;;;;;4935894;29;20045;-74
2022/07/09 05:29:14;;;;;;;9.40;5.03;;;17.40;99.90;;;;;;4935447;29;20070;-75
2022/07/09 05:31:40;;;;;;;6.15;4.28;;;17.50;99.90;;;;;;4934859;29;20504;-74
2022/07/09 05:34:07;;;;;;;3.83;3.28;;;17.60;99.90;;;;;;4935214;29;20067;-72
2022/07/09 05:36:34;;;;;;;5.03;3.20;;;17.60;99.90;;;;;;4935455;29;20059;-73
2022/07/09 05:39:00;;;;;;;7.75;4.07;;;17.60;99.90;;;;;;4935850;29;20047;-75
2022/07/09 05:41:26;;;;;;;9.52;4.28;;;17.70;99.90;;;;;;4935293;29;20054;-75
2022/07/09 05:43:53;;;;;;;8.80;4.30;;;17.70;99.90;;;;;;4935463;29;20056;-75
2022/07/09 05:46:20;;;;;;;6.95;4.15;;;17.70;99.90;;;;;;4935062;29;20453;-74
2022/07/09 05:48:45;;;;;;;6.88;3.50;;;17.70;99.90;;;;;;4933968;29;20470;-73
2022/07/09 05:51:11;;;;;;;6.28;3.47;;;17.70;99.90;;;;;;4934968;29;20051;-75
2022/07/09 05:53:37;;;;;;;5.85;3.13;;;17.80;99.90;;;;;;4935467;29;20051;-74
2022/07/09 05:56:03;;;;;;;8.35;3.78;;;17.80;99.90;;;;;;4934946;29;20043;-73
2022/07/09 05:58:28;;;;;;;5.63;3.33;;;17.80;99.90;;;;;;4933997;29;20043;-74
2022/07/09 06:00:54;;;;;;;6.55;3.28;;;17.90;99.90;;;;;;4935148;29;20047;-73
2022/07/09 06:03:20;;;;;;;6.47;3.88;;;17.90;99.90;;;;;;4935112;29;20051;-75
2022/07/09 06:05:45;;;;;;;8.38;3.55;;;17.90;99.90;;;;;;4934902;29;20472;-73
2022/07/09 06:08:12;;;;;;;6.80;2.75;;;17.90;99.90;;;;;;4934977;29;20040;-75
2022/07/09 06:10:37;;;;;;;4.88;3.40;;;18.00;99.90;;;;;;4934963;29;20099;-73
2022/07/09 06:13:03;;;;;;;6.97;4.43;;;18.00;99.90;;;;;;4934837;29;20047;-75
2022/07/09 06:15:29;;;;;;;4.53;3.22;;;18.10;99.90;;;;;;4935193;29;20054;-72
2022/07/09 06:17:55;;;;;;;8.18;3.28;;;18.00;99.90;;;;;;4933679;29;20134;-75
2022/07/09 06:20:21;;;;;;;4.15;2.78;;;18.10;99.90;;;;;;4934020;29;20453;-74
2022/07/09 06:22:47;;;;;;;7.63;3.47;;;18.10;99.90;;;;;;4934697;29;20048;-74
2022/07/09 06:25:13;;;;;;;5.25;2.83;;;18.10;99.90;;;;;;4934861;29;20055;-73
2022/07/09 06:27:40;;;;;;;6.00;4.03;;;18.20;99.90;;;;;;4934459;29;20103;-74
2022/07/09 06:30:06;;;;;;;5.82;3.22;;;18.20;99.90;;;;;;4934438;29;20566;-73
2022/07/09 06:32:32;;;;;;;6.43;4.03;;;18.20;99.90;;;;;;4934606;29;20060;-75
2022/07/09 06:34:58;;;;;;;5.20;3.20;;;18.20;99.90;;;;;;4934526;29;20060;-75
2022/07/09 06:37:24;;;;;;;3.80;2.65;;;18.20;99.90;;;;;;4934952;29;20051;-74
2022/07/09 06:39:50;;;;;;;4.53;2.70;;;18.30;99.90;;;;;;4934948;29;20050;-75
2022/07/09 06:42:17;;;;;;;9.73;3.38;;;18.40;99.90;;;;;;4934656;29;20044;-73
2022/07/09 06:44:43;;;;;;;6.32;3.15;;;18.40;99.90;;;;;;4938933;29;20078;-72
2022/07/09 06:47:09;;;;;;;4.30;2.85;;;18.50;99.90;;;;;;4938398;29;20055;-75
2022/07/09 06:49:35;;;;;;;5.90;3.28;;;18.60;99.90;;;;;;4938290;29;20520;-72
2022/07/09 06:52:01;;;;;;;4.57;2.75;;;18.70;99.90;;;;;;4938191;29;20044;-75
2022/07/09 06:54:27;;;;;;;4.97;2.92;;;18.70;99.90;;;;;;4938691;29;20040;-72
2022/07/09 06:56:52;;;;;;;6.38;3.42;;;18.70;99.90;;;;;;4937965;29;20054;-73
2022/07/09 06:59:18;;;;;;;4.30;3.20;;;18.80;99.90;;;;;;4938347;29;20052;-74
2022/07/09 07:01:45;;;;;;;3.85;2.75;;;18.80;99.90;;;;;;4938384;29;20386;-71
2022/07/09 07:04:12;;;;;;;6.57;3.10;;;18.80;99.90;;;;;;4937952;29;20127;-73
2022/07/09 07:06:39;;;;;;;5.95;2.70;;;18.80;99.90;;;;;;4938357;29;20052;-73
2022/07/09 07:09:04;;;;;;;4.65;2.20;;;18.80;99.90;;;;;;4938218;29;20082;-71
2022/07/09 07:11:30;;;;;;;5.57;2.95;;;18.80;99.90;;;;;;4937847;29;20479;-73
2022/07/09 07:13:56;;;;;;;5.18;2.85;;;18.80;99.90;;;;;;4938194;29;20043;-71
2022/07/09 07:16:21;;;;;;;3.85;2.28;;;18.90;99.90;;;;;;4937612;29;20050;-73
2022/07/09 07:18:47;;;;;;;6.45;3.67;;;18.90;99.90;;;;;;4937738;29;20489;-75
2022/07/09 07:21:13;;;;;;;3.70;2.70;;;18.90;99.90;;;;;;4937520;29;20043;-73
2022/07/09 07:23:38;;;;;;;5.85;3.10;;;19.00;99.90;;;;;;4937621;29;20043;-73
2022/07/09 07:26:04;;;;;;;2.67;2.47;;;19.00;99.90;;;;;;4937164;29;20126;-72
2022/07/09 07:28:30;;;;;;;3.65;2.53;;;19.00;99.90;;;;;;4937540;29;20051;-75
2022/07/09 07:30:56;;;;;;;3.25;2.00;;;19.10;99.90;;;;;;4937335;29;20048;-71
2022/07/09 07:33:21;;;;;;;3.45;2.08;;;19.20;99.90;;;;;;4937576;29;20111;-71
2022/07/09 07:35:47;;;;;;;5.93;2.80;;;19.30;99.90;;;;;;4937714;29;20091;-73
2022/07/09 07:38:13;;;;;;;2.28;2.08;;;19.40;99.90;;;;;;4936893;29;20082;-73
2022/07/09 07:40:39;;;;;;;4.45;2.30;;;19.50;99.90;;;;;;4937099;29;20043;-74
2022/07/09 07:43:04;;;;;;;4.38;2.58;;;19.60;99.90;;;;;;4937222;29;20071;-71
2022/07/09 07:45:31;;;;;;;5.43;2.47;;;19.90;99.90;;;;;;4937153;29;20123;-74
2022/07/09 07:47:57;;;;;;;2.78;1.88;;;20.00;99.90;;;;;;4937372;29;20114;-72
2022/07/09 07:50:24;;;;;;;3.15;2.08;;;20.20;99.90;;;;;;4937068;29;20061;-75
2022/07/09 07:52:50;;;;;;;2.22;1.85;;;20.60;99.90;;;;;;4936958;29;20047;-74
2022/07/09 07:55:16;;;;;;;6.45;1.90;;;20.80;99.90;;;;;;4937247;29;20069;-72
2022/07/09 07:57:42;;;;;;;4.00;2.22;;;20.90;99.90;;;;;;4935627;29;20132;-72
2022/07/09 08:00:08;;;;;;;1.95;1.73;;;20.90;99.90;;;;;;4937058;29;20123;-72
2022/07/09 08:02:34;;;;;;;2.65;2.13;;;20.70;99.90;;;;;;4936922;29;20087;-73
2022/07/09 08:05:00;;;;;;;3.33;2.15;;;20.70;99.90;;;;;;4936785;29;20043;-75
2022/07/09 08:07:26;;;;;;;4.22;1.90;;;20.80;99.90;;;;;;4936929;29;20044;-76
2022/07/09 08:09:52;;;;;;;3.50;2.00;;;21.00;99.90;;;;;;4937115;29;20122;-75
2022/07/09 08:12:18;;;;;;;3.72;1.70;;;21.30;99.90;;;;;;4937086;29;20082;-74
2022/07/09 08:14:44;;;;;;;4.20;2.72;;;21.50;99.90;;;;;;4937379;29;20460;-73
2022/07/09 08:17:10;;;;;;;2.35;1.80;;;21.60;99.90;;;;;;4937365;29;20480;-75
2022/07/09 08:19:36;;;;;;;3.25;2.45;;;21.70;99.90;;;;;;4936893;29;20047;-72
2022/07/09 08:22:02;;;;;;;4.28;1.65;;;22.00;99.90;;;;;;4937066;29;20043;-77
2022/07/09 08:24:27;;;;;;;3.35;1.70;;;22.50;99.90;;;;;;4936708;29;20123;-72
2022/07/09 08:26:53;;;;;;;3.17;1.70;;;22.40;99.90;;;;;;4937287;29;20047;-76
2022/07/09 08:29:19;;;;;;;2.55;1.60;;;21.80;99.90;;;;;;4936626;29;20405;-75
2022/07/09 08:31:44;;;;;;;4.72;1.88;;;21.50;99.90;;;;;;4936649;29;20054;-75
2022/07/09 08:34:10;;;;;;;5.28;1.55;;;21.20;99.90;;;;;;4936425;29;20053;-75
2022/07/09 08:36:36;;;;;;;5.47;1.60;;;21.20;99.90;;;;;;4936757;29;20544;-72
2022/07/09 08:39:02;;;;;;;4.35;2.00;;;21.20;99.90;;;;;;4936771;29;20051;-75
2022/07/09 08:41:28;;;;;;;2.30;1.70;;;21.20;99.90;;;;;;4937214;29;20066;-72
2022/07/09 08:43:54;;;;;;;5.13;2.00;;;21.50;99.90;;;;;;4936800;29;20502;-75
2022/07/09 08:46:20;;;;;;;4.20;1.75;;;22.10;99.90;;;;;;4936400;29;20048;-75
2022/07/09 08:48:46;;;;;;;2.38;1.42;;;22.50;99.90;;;;;;4936438;29;20047;-76
2022/07/09 08:51:15;;;;;;;3.92;1.85;;;22.50;99.90;;;;;;4936103;29;20055;-75
2022/07/09 08:53:43;;;;;;;4.47;1.63;;;22.80;99.90;;;;;;4936240;29;20043;-75
2022/07/09 08:56:09;;;;;;;2.20;1.60;;;23.20;99.90;;;;;;4935998;29;20040;-74
2022/07/09 08:58:35;;;;;;;5.28;1.63;;;23.00;99.90;;;;;;4936359;29;20058;-76
2022/07/09 09:01:02;;;;;;;2.60;1.77;;;23.40;99.90;;;;;;4936444;29;20059;-74
2022/07/09 09:03:27;;;;;;;5.93;1.95;;;23.50;99.90;;;;;;4935629;29;20056;-72
2022/07/09 09:06:06;;;;;;;5.30;2.08;;;23.30;99.90;;;;;;4935451;29;20048;-75
2022/07/09 09:08:36;;;;;;;4.00;1.80;;;24.00;99.90;;;;;;4935902;29;20053;-75
2022/07/09 09:11:07;;;;;;;5.20;1.77;;;23.80;99.90;;;;;;4934738;29;20139;-76
2022/07/09 09:13:45;;;;;;;2.28;1.40;;;23.00;98.90;;;;;;4935840;29;20050;-77
2022/07/09 09:16:13;;;;;;;4.75;2.10;;;22.90;99.90;;;;;;4935923;29;20050;-76
2022/07/09 09:18:44;;;;;;;3.65;1.30;;;23.60;99.90;;;;;;4934628;29;20055;-76
2022/07/09 09:21:11;;;;;;;2.03;1.42;;;23.60;99.90;;;;;;4935986;29;20071;-76
2022/07/09 09:23:43;;;;;;;4.38;1.63;;;23.30;99.90;;;;;;4934944;29;20472;-75
2022/07/09 09:26:15;;;;;;;3.05;1.58;;;23.60;99.90;;;;;;4934667;29;20105;-75
2022/07/09 09:29:01;;;;;;;2.78;1.63;;;23.60;99.10;;;;;;4935712;29;20051;-73
2022/07/09 09:31:31;;;;;;;2.17;1.70;;;23.20;98.80;;;;;;4935340;29;20126;-76
2022/07/09 09:34:09;;;;;;;3.22;1.50;;;23.40;99.30;;;;;;4935368;29;20075;-77
2022/07/09 09:36:38;;;;;;;2.10;1.63;;;23.50;99.50;;;;;;4935435;29;20063;-76
2022/07/09 09:39:15;;;;;;;4.38;1.58;;;23.70;99.70;;;;;;4935331;29;20098;-74
2022/07/09 09:41:43;;;;;;;3.90;1.60;;;23.50;96.70;;;;;;4934911;29;20051;-72
2022/07/09 09:44:17;;;;;;;1.67;1.45;;;23.40;99.10;;;;;;4935380;29;20044;-74
2022/07/09 09:46:44;;;;;;;3.10;2.05;;;23.60;97.00;;;;;;4935073;29;20526;-72
2022/07/09 09:49:14;;;;;;;3.50;1.60;;;23.50;99.00;;;;;;4934116;29;20098;-76
2022/07/09 09:52:07;;;;;;;2.30;1.48;;;23.30;98.00;;;;;;4935224;29;20107;-75
2022/07/09 09:54:36;;;;;;;4.32;2.13;;;23.10;97.50;;;;;;4935419;29;20059;-74
2022/07/09 09:57:09;;;;;;;6.25;1.70;;;22.70;99.90;;;;;;4935076;29;20043;-73
2022/07/09 09:59:37;;;;;;;2.90;1.52;;;22.30;99.90;;;;;;4935115;29;20051;-75
2022/07/09 10:02:09;;;;;;;4.25;1.65;;;22.10;99.90;;;;;;4935428;29;20051;-73
2022/07/09 10:04:40;;;;;;;1.88;1.70;;;21.80;99.90;;;;;;4935542;29;20055;-75
2022/07/09 10:07:06;;;;;;;2.45;1.33;;;22.10;99.90;;;;;;4935090;29;20459;-73
2022/07/09 10:09:32;;;;;;;4.05;1.92;;;22.70;99.90;;;;;;4934995;29;20492;-76
2022/07/09 10:11:58;;;;;;;1.80;1.60;;;23.10;99.50;;;;;;4935043;29;20122;-74
2022/07/09 10:14:24;;;;;;;3.53;1.63;;;23.50;99.40;;;;;;4934980;29;20106;-75
2022/07/09 10:16:52;;;;;;;3.13;1.42;;;23.20;98.80;;;;;;4934021;29;20052;-76
2022/07/09 10:19:28;;;;;;;3.47;1.70;;;23.10;97.40;;;;;;4938908;29;20051;-74
2022/07/09 10:21:58;;;;;;;2.55;1.95;;;23.20;96.20;;;;;;4939053;29;20047;-75
2022/07/09 10:24:31;;;;;;;3.20;1.40;;;23.80;97.30;;;;;;4938933;29;20052;-74
2022/07/09 10:27:06;;;;;;;4.22;1.88;;;24.30;97.40;;;;;;4938698;29;20366;-74
2022/07/09 10:29:32;;;;;;;2.08;1.20;;;24.80;96.30;;;;;;4938899;29;20048;-74
2022/07/09 10:31:57;;;;;;;2.22;1.92;;;25.20;96.90;;;;;;4939043;29;20048;-76
2022/07/09 10:34:38;;;;;;;3.97;1.52;;;24.70;96.00;;;;;;4938650;29;20460;-76
2022/07/09 10:37:05;;;;;;;1.80;1.50;;;25.20;93.70;;;;;;4937794;29;20044;-72
2022/07/09 10:39:32;;;;;;;6.30;1.60;;;25.10;95.10;;;;;;4938752;29;20063;-74
2022/07/09 10:42:01;;;;;;;5.65;1.40;;;25.10;95.10;;;;;;4938750;29;20056;-75
2022/07/09 10:44:28;;;;;;;4.28;1.80;;;25.20;94.50;;;;;;4937786;29;20056;-74
2022/07/09 10:46:58;;;;;;;3.65;1.63;;;25.30;94.60;;;;;;4938859;29;20043;-74
2022/07/09 10:49:26;;;;;;;2.92;1.70;;;23.60;95.70;;;;;;4938483;29;20074;-74
2022/07/09 10:51:58;;;;;;;7.03;2.08;;;23.10;97.70;;;;;;4938258;29;20123;-73
2022/07/09 10:54:24;;;;;;;3.42;1.90;;;22.00;99.20;;;;;;4936974;29;20056;-76
2022/07/09 10:56:50;;;;;;;6.10;2.78;;;21.80;99.90;;;;;;4937630;29;20050;-75
2022/07/09 10:59:20;;;;;;;4.53;2.08;;;21.00;99.90;;;;;;4936781;29;20063;-74
2022/07/09 11:01:46;;;;;;;5.00;2.40;;;20.50;99.90;;;;;;4938208;29;20052;-74
2022/07/09 11:04:12;;;;;;;4.05;2.20;;;20.30;99.90;;;;;;4938176;29;20126;-72
2022/07/09 11:06:47;;;;;;;5.07;1.90;;;20.30;99.90;;;;;;4938119;29;20501;-75
2022/07/09 11:09:16;;;;;;;5.10;2.00;;;20.20;99.90;;;;;;4921363;29;20052;-71
2022/07/09 11:11:43;;;;;;;3.40;1.88;;;19.90;99.90;;;;;;4937850;29;20062;-74
2022/07/09 11:14:10;;;;;;;3.67;2.13;;;19.90;99.90;;;;;;4937836;29;20047;-74
2022/07/09 11:16:36;;;;;;;4.95;2.10;;;19.90;99.90;;;;;;4937501;29;20051;-73
2022/07/09 11:19:19;;;;;;;5.18;2.22;;;19.90;99.90;;;;;;4937904;29;20511;-74
2022/07/09 11:21:46;;;;;;;4.20;2.15;;;20.30;99.90;;;;;;4937602;29;20095;-74
2022/07/09 11:24:18;;;;;;;5.38;2.15;;;20.50;99.90;;;;;;4937454;29;20054;-72
2022/07/09 11:26:44;;;;;;;;;;;20.50;99.90;;;;;;4937957;29;20083;-75
2022/07/09 11:29:10;;;;;;;4.72;2.30;;;20.70;99.90;;;;;;4937453;29;19977;-75
2022/07/09 11:31:45;;;;;;;6.35;2.08;;;21.00;99.90;;;;;;4936211;29;20130;-74
2022/07/09 11:34:11;;;;;;;4.93;2.38;;;20.90;99.90;;;;;;4937617;29;20067;-74
2022/07/09 11:36:38;;;;;;;2.65;1.75;;;20.70;99.90;;;;;;4937413;29;20401;-73
2022/07/09 11:39:04;;;;;;;1.70;1.52;;;20.70;99.90;;;;;;4937257;29;20054;-72
2022/07/09 11:41:43;;;;;;;4.05;1.60;;;21.00;99.90;;;;;;4937607;29;20043;-75
2022/07/09 11:44:09;;;;;;;3.05;1.40;;;21.00;98.90;;;;;;4937325;29;20048;-74
2022/07/09 11:46:35;;;;;;;6.50;2.40;;;20.70;98.80;;;;;;4937100;29;20127;-75
2022/07/09 11:49:00;;;;;;;6.00;1.65;;;20.40;99.00;;;;;;4937137;29;20048;-74
2022/07/09 11:51:32;;;;;;;28.58;15.40;;;20.70;99.40;;;;;;4936981;29;20098;-74
2022/07/09 11:53:58;;;;;;;19.60;12.25;;;20.90;97.40;;;;;;4937343;29;20186;-74
2022/07/09 11:56:23;;;;;;;4.35;1.83;;;20.80;98.40;;;;;;4937244;29;20414;-72
2022/07/09 11:58:50;;;;;;;3.80;1.80;;;20.90;97.60;;;;;;4937259;29;20084;-74
2022/07/09 12:01:16;;;;;;;3.42;1.42;;;21.10;97.30;;;;;;4937036;29;20063;-72
2022/07/09 12:03:48;;;;;;;3.33;1.30;;;21.00;95.30;;;;;;4937305;29;20058;-73
2022/07/09 12:06:14;;;;;;;6.90;3.10;;;20.90;95.70;;;;;;4936993;29;20510;-74
2022/07/09 12:08:40;;;;;;;3.10;1.25;;;20.90;95.60;;;;;;4937401;29;20051;-73
2022/07/09 12:11:06;;;;;;;5.07;2.25;;;21.00;95.50;;;;;;4937354;29;20135;-71
2022/07/09 12:13:32;;;;;;;2.53;1.23;;;20.90;96.20;;;;;;4937538;29;20083;-74
2022/07/09 12:15:57;;;;;;;5.70;3.47;;;20.70;96.20;;;;;;4936405;29;20355;-71
2022/07/09 12:18:23;;;;;;;3.38;1.40;;;20.40;95.80;;;;;;4937398;29;20047;-75
2022/07/09 12:20:49;;;;;;;5.70;1.50;;;20.10;97.20;;;;;;4936725;29;20122;-74
2022/07/09 12:23:15;;;;;;;3.95;1.67;;;20.10;97.20;;;;;;4937325;29;20134;-74
2022/07/09 12:25:40;;;;;;;7.03;3.83;;;20.30;97.80;;;;;;4935595;29;20051;-75
2022/07/09 12:28:06;;;;;;;5.25;1.75;;;20.30;97.30;;;;;;4936723;29;20508;-74
2022/07/09 12:30:32;;;;;;;7.53;1.10;;;20.40;97.80;;;;;;4936705;29;20055;-74
2022/07/09 12:32:58;;;;;;;3.05;1.30;;;20.40;97.60;;;;;;4937089;29;20122;-73
2022/07/09 12:35:25;;;;;;;2.90;1.23;;;20.40;97.50;;;;;;4935306;29;20153;-74
2022/07/09 12:37:51;;;;;;;5.07;2.22;;;20.30;97.70;;;;;;4935266;29;20054;-74
2022/07/09 12:40:16;;;;;;;3.17;1.25;;;20.20;97.70;;;;;;4936115;29;20047;-73
2022/07/09 12:42:42;;;;;;;4.28;1.75;;;20.10;97.60;;;;;;4936545;29;20055;-74